Illinois River (Oklahoma), Tahlequah (07196500)

StateOklahomaLatestGood (448 cfs)
RiverIllinois RiverRatingObservedEstimated
Updated2020-09-23 1:30 (17 minutes ago)Flood - The river is flooding. Obstacles can be treacherous or deadly. The river should be avoided at this stage for casual trips and definitely for the inexperienced. Trips should be attempted only with protective gear and equipment.Flood(none)3296
Discharge448 cfs (median: 229 cfs)High - The river is high and potentially dangerous, especially for the young and / or inexperienced. Normal stream obstacles are sometimes difficult to navigate. Extended distances can be attempted, but canoe travel may not be advisable.High(none)1679
Height5.13 feetGood - Conditions are ideal for a canoe or kayak. Boats typically will drag on fewer than one-quarter of riffles, if at all, and portages are unnecessary or rare. Normal float lengths can be attempted without a problem.Good300901
TrendFalling (rising over 24 hours)Low - River is low but can still be floated. Some riffles are okay but most come with significant dragging and might need a portage. Float lengths should be reduced to accommodate low flow, dragging, and portages.Low(none)587
USGSExternal icon USGS Site (External icon Google Maps)Poor - River is too low to float comfortably. Most or all riffles will drag or must be portaged and some obstacles (such as slick shelf rock) cause undue problems. Avoid the river at this stage for casual paddling trips.Poor(none)229

Trending Data

Plot Image

Trips for Illinois River (Oklahoma), Tahlequah (07196500)

DateStartEndDistanceConditionDischargeHeightFishingDetails

A total of 0 rows are displayed.

Condition Descriptions

Fishing Conditions

Fish Species

Notes

Classic Trip List

The classic River Trips application is still available for use. It is updated with the new system using a data retrofit. It is no longer maintained. The original River Trips application is no longer updated (as of 1 Dec 2016) but can be checked for errors or for the condition of the data before it was converted to the new system.

Gauge Data Table

ObservationHeightDischargeMaximum
Discharge
Minimum
Discharge
Mean
Discharge
P05P10P20P25P50
(Median)
P75P80P90P95
2020-09-23 01:30 5.13 448 4580 (2009) 3 (1956) 412 44 85 111 128 229 379 472 853 1690
2020-09-23 00:30 5.14 452 4580 (2009) 3 (1956) 412 44 85 111 128 229 379 472 853 1690
2020-09-22 23:30 5.14 452 5440 (1974) 4 (1956) 419 44 84 119 125 221 364 470 916 1820
2020-09-22 22:30 5.14 452 5440 (1974) 4 (1956) 419 44 84 119 125 221 364 470 916 1820
2020-09-22 21:30 5.14 452 5440 (1974) 4 (1956) 419 44 84 119 125 221 364 470 916 1820
2020-09-22 20:30 5.14 452 5440 (1974) 4 (1956) 419 44 84 119 125 221 364 470 916 1820
2020-09-22 19:30 5.12 443 5440 (1974) 4 (1956) 419 44 84 119 125 221 364 470 916 1820
2020-09-22 18:30 5.11 439 5440 (1974) 4 (1956) 419 44 84 119 125 221 364 470 916 1820
2020-09-22 17:30 5.10 435 5440 (1974) 4 (1956) 419 44 84 119 125 221 364 470 916 1820
2020-09-22 16:30 5.10 435 5440 (1974) 4 (1956) 419 44 84 119 125 221 364 470 916 1820
2020-09-22 15:30 5.09 430 5440 (1974) 4 (1956) 419 44 84 119 125 221 364 470 916 1820
2020-09-22 14:30 5.08 426 5440 (1974) 4 (1956) 419 44 84 119 125 221 364 470 916 1820
2020-09-22 13:30 5.06 417 5440 (1974) 4 (1956) 419 44 84 119 125 221 364 470 916 1820
2020-09-22 12:30 5.07 421 5440 (1974) 4 (1956) 419 44 84 119 125 221 364 470 916 1820
2020-09-22 11:30 5.02 400 5440 (1974) 4 (1956) 419 44 84 119 125 221 364 470 916 1820
2020-09-22 10:30 4.98 384 5440 (1974) 4 (1956) 419 44 84 119 125 221 364 470 916 1820
2020-09-22 09:30 4.92 360 5440 (1974) 4 (1956) 419 44 84 119 125 221 364 470 916 1820
2020-09-22 08:30 4.93 364 5440 (1974) 4 (1956) 419 44 84 119 125 221 364 470 916 1820
2020-09-22 07:30 4.92 360 5440 (1974) 4 (1956) 419 44 84 119 125 221 364 470 916 1820
2020-09-22 06:30 4.90 352 5440 (1974) 4 (1956) 419 44 84 119 125 221 364 470 916 1820
2020-09-22 05:30 4.90 352 5440 (1974) 4 (1956) 419 44 84 119 125 221 364 470 916 1820
2020-09-22 04:30 4.90 352 5440 (1974) 4 (1956) 419 44 84 119 125 221 364 470 916 1820
2020-09-22 03:30 4.90 352 5440 (1974) 4 (1956) 419 44 84 119 125 221 364 470 916 1820
2020-09-22 02:30 4.90 352 5440 (1974) 4 (1956) 419 44 84 119 125 221 364 470 916 1820
2020-09-22 01:30 4.89 348 5440 (1974) 4 (1956) 419 44 84 119 125 221 364 470 916 1820
2020-09-22 00:30 4.88 344 5440 (1974) 4 (1956) 419 44 84 119 125 221 364 470 916 1820
2020-09-21 23:30 4.88 344 11100 (1975) 4 (1954) 501 44 83 116 129 222 387 444 745 1280
2020-09-21 22:30 4.88 344 11100 (1975) 4 (1954) 501 44 83 116 129 222 387 444 745 1280
2020-09-21 21:30 4.88 344 11100 (1975) 4 (1954) 501 44 83 116 129 222 387 444 745 1280
2020-09-21 20:30 4.87 341 11100 (1975) 4 (1954) 501 44 83 116 129 222 387 444 745 1280
2020-09-21 19:30 4.88 344 11100 (1975) 4 (1954) 501 44 83 116 129 222 387 444 745 1280
2020-09-21 18:30 4.88 344 11100 (1975) 4 (1954) 501 44 83 116 129 222 387 444 745 1280
2020-09-21 17:30 4.87 341 11100 (1975) 4 (1954) 501 44 83 116 129 222 387 444 745 1280
2020-09-21 16:30 4.87 341 11100 (1975) 4 (1954) 501 44 83 116 129 222 387 444 745 1280
2020-09-21 15:30 4.87 341 11100 (1975) 4 (1954) 501 44 83 116 129 222 387 444 745 1280
2020-09-21 14:30 4.88 344 11100 (1975) 4 (1954) 501 44 83 116 129 222 387 444 745 1280
2020-09-21 13:30 4.88 344 11100 (1975) 4 (1954) 501 44 83 116 129 222 387 444 745 1280
2020-09-21 12:30 4.89 348 11100 (1975) 4 (1954) 501 44 83 116 129 222 387 444 745 1280
2020-09-21 11:30 4.89 348 11100 (1975) 4 (1954) 501 44 83 116 129 222 387 444 745 1280
2020-09-21 10:30 4.90 352 11100 (1975) 4 (1954) 501 44 83 116 129 222 387 444 745 1280
2020-09-21 09:30 4.89 348 11100 (1975) 4 (1954) 501 44 83 116 129 222 387 444 745 1280
2020-09-21 08:30 4.90 352 11100 (1975) 4 (1954) 501 44 83 116 129 222 387 444 745 1280
2020-09-21 07:30 4.91 356 11100 (1975) 4 (1954) 501 44 83 116 129 222 387 444 745 1280
2020-09-21 06:30 4.91 356 11100 (1975) 4 (1954) 501 44 83 116 129 222 387 444 745 1280
2020-09-21 05:30 4.91 356 11100 (1975) 4 (1954) 501 44 83 116 129 222 387 444 745 1280
2020-09-21 04:30 4.91 356 11100 (1975) 4 (1954) 501 44 83 116 129 222 387 444 745 1280
2020-09-21 03:30 4.91 356 11100 (1975) 4 (1954) 501 44 83 116 129 222 387 444 745 1280
2020-09-21 02:30 4.91 356 11100 (1975) 4 (1954) 501 44 83 116 129 222 387 444 745 1280
2020-09-21 01:30 4.91 356 11100 (1975) 4 (1954) 501 44 83 116 129 222 387 444 745 1280
2020-09-21 00:30 4.91 356 11100 (1975) 4 (1954) 501 44 83 116 129 222 387 444 745 1280
2020-09-20 23:30 4.91 356 10400 (1975) 3 (1954) 511 46 86 111 125 223 401 447 780 1570
2020-09-20 22:30 4.90 352 10400 (1975) 3 (1954) 511 46 86 111 125 223 401 447 780 1570
2020-09-20 21:30 4.90 352 10400 (1975) 3 (1954) 511 46 86 111 125 223 401 447 780 1570
2020-09-20 20:30 4.90 352 10400 (1975) 3 (1954) 511 46 86 111 125 223 401 447 780 1570
2020-09-20 19:30 4.89 348 10400 (1975) 3 (1954) 511 46 86 111 125 223 401 447 780 1570
2020-09-20 18:30 4.90 352 10400 (1975) 3 (1954) 511 46 86 111 125 223 401 447 780 1570
2020-09-20 17:30 4.90 352 10400 (1975) 3 (1954) 511 46 86 111 125 223 401 447 780 1570
2020-09-20 16:30 4.90 352 10400 (1975) 3 (1954) 511 46 86 111 125 223 401 447 780 1570
2020-09-20 15:30 4.89 348 10400 (1975) 3 (1954) 511 46 86 111 125 223 401 447 780 1570
2020-09-20 14:30 4.90 352 10400 (1975) 3 (1954) 511 46 86 111 125 223 401 447 780 1570
2020-09-20 13:30 4.90 352 10400 (1975) 3 (1954) 511 46 86 111 125 223 401 447 780 1570
2020-09-20 12:30 4.90 352 10400 (1975) 3 (1954) 511 46 86 111 125 223 401 447 780 1570
2020-09-20 11:30 4.91 356 10400 (1975) 3 (1954) 511 46 86 111 125 223 401 447 780 1570
2020-09-20 10:30 4.91 356 10400 (1975) 3 (1954) 511 46 86 111 125 223 401 447 780 1570
2020-09-20 09:30 4.91 356 10400 (1975) 3 (1954) 511 46 86 111 125 223 401 447 780 1570
2020-09-20 08:30 4.92 360 10400 (1975) 3 (1954) 511 46 86 111 125 223 401 447 780 1570
2020-09-20 07:30 4.92 360 10400 (1975) 3 (1954) 511 46 86 111 125 223 401 447 780 1570
2020-09-20 06:30 4.92 360 10400 (1975) 3 (1954) 511 46 86 111 125 223 401 447 780 1570
2020-09-20 05:30 4.92 360 10400 (1975) 3 (1954) 511 46 86 111 125 223 401 447 780 1570
2020-09-20 04:30 4.92 360 10400 (1975) 3 (1954) 511 46 86 111 125 223 401 447 780 1570
2020-09-20 03:30 4.92 360 10400 (1975) 3 (1954) 511 46 86 111 125 223 401 447 780 1570
2020-09-20 02:30 4.92 360 10400 (1975) 3 (1954) 511 46 86 111 125 223 401 447 780 1570
2020-09-20 01:30 4.92 360 10400 (1975) 3 (1954) 511 46 86 111 125 223 401 447 780 1570
2020-09-20 00:30 4.92 360 10400 (1975) 3 (1954) 511 46 86 111 125 223 401 447 780 1570
2020-09-19 23:30 4.92 360 2440 (1986) 2 (1954) 363 47 86 109 132 229 389 475 685 1540
2020-09-19 22:30 4.91 356 2440 (1986) 2 (1954) 363 47 86 109 132 229 389 475 685 1540
2020-09-19 21:30 4.91 356 2440 (1986) 2 (1954) 363 47 86 109 132 229 389 475 685 1540
2020-09-19 20:30 4.91 356 2440 (1986) 2 (1954) 363 47 86 109 132 229 389 475 685 1540
2020-09-19 19:30 4.91 356 2440 (1986) 2 (1954) 363 47 86 109 132 229 389 475 685 1540
2020-09-19 18:30 4.91 356 2440 (1986) 2 (1954) 363 47 86 109 132 229 389 475 685 1540
2020-09-19 17:30 4.91 356 2440 (1986) 2 (1954) 363 47 86 109 132 229 389 475 685 1540
2020-09-19 16:30 4.91 356 2440 (1986) 2 (1954) 363 47 86 109 132 229 389 475 685 1540
2020-09-19 15:30 4.92 360 2440 (1986) 2 (1954) 363 47 86 109 132 229 389 475 685 1540
2020-09-19 14:30 4.92 360 2440 (1986) 2 (1954) 363 47 86 109 132 229 389 475 685 1540
2020-09-19 13:30 4.92 360 2440 (1986) 2 (1954) 363 47 86 109 132 229 389 475 685 1540
2020-09-19 12:30 4.92 360 2440 (1986) 2 (1954) 363 47 86 109 132 229 389 475 685 1540
2020-09-19 11:30 4.92 360 2440 (1986) 2 (1954) 363 47 86 109 132 229 389 475 685 1540
2020-09-19 10:30 4.93 364 2440 (1986) 2 (1954) 363 47 86 109 132 229 389 475 685 1540
2020-09-19 09:30 4.93 364 2440 (1986) 2 (1954) 363 47 86 109 132 229 389 475 685 1540
2020-09-19 08:30 4.94 368 2440 (1986) 2 (1954) 363 47 86 109 132 229 389 475 685 1540
2020-09-19 07:30 4.94 368 2440 (1986) 2 (1954) 363 47 86 109 132 229 389 475 685 1540
2020-09-19 06:30 4.94 368 2440 (1986) 2 (1954) 363 47 86 109 132 229 389 475 685 1540
2020-09-19 05:30 4.94 368 2440 (1986) 2 (1954) 363 47 86 109 132 229 389 475 685 1540
2020-09-19 04:30 4.94 368 2440 (1986) 2 (1954) 363 47 86 109 132 229 389 475 685 1540
2020-09-19 03:30 4.94 368 2440 (1986) 2 (1954) 363 47 86 109 132 229 389 475 685 1540
2020-09-19 02:30 4.94 368 2440 (1986) 2 (1954) 363 47 86 109 132 229 389 475 685 1540
2020-09-19 01:30 4.94 368 2440 (1986) 2 (1954) 363 47 86 109 132 229 389 475 685 1540
2020-09-19 00:30 4.94 368 2440 (1986) 2 (1954) 363 47 86 109 132 229 389 475 685 1540
2020-09-18 23:30 4.94 368 4960 (1986) 1 (1954) 376 50 83 109 122 223 387 420 608 1360
2020-09-18 22:30 4.94 368 4960 (1986) 1 (1954) 376 50 83 109 122 223 387 420 608 1360
2020-09-18 21:30 4.94 368 4960 (1986) 1 (1954) 376 50 83 109 122 223 387 420 608 1360
2020-09-18 20:30 4.94 368 4960 (1986) 1 (1954) 376 50 83 109 122 223 387 420 608 1360
2020-09-18 19:30 4.93 364 4960 (1986) 1 (1954) 376 50 83 109 122 223 387 420 608 1360
2020-09-18 18:30 4.93 364 4960 (1986) 1 (1954) 376 50 83 109 122 223 387 420 608 1360
2020-09-18 17:30 4.93 364 4960 (1986) 1 (1954) 376 50 83 109 122 223 387 420 608 1360
2020-09-18 16:30 4.93 364 4960 (1986) 1 (1954) 376 50 83 109 122 223 387 420 608 1360
2020-09-18 15:30 4.93 364 4960 (1986) 1 (1954) 376 50 83 109 122 223 387 420 608 1360
2020-09-18 14:30 4.93 364 4960 (1986) 1 (1954) 376 50 83 109 122 223 387 420 608 1360
2020-09-18 13:30 4.94 368 4960 (1986) 1 (1954) 376 50 83 109 122 223 387 420 608 1360
2020-09-18 12:30 4.94 368 4960 (1986) 1 (1954) 376 50 83 109 122 223 387 420 608 1360
2020-09-18 11:30 4.94 368 4960 (1986) 1 (1954) 376 50 83 109 122 223 387 420 608 1360
2020-09-18 10:30 4.95 372 4960 (1986) 1 (1954) 376 50 83 109 122 223 387 420 608 1360
2020-09-18 09:30 4.95 372 4960 (1986) 1 (1954) 376 50 83 109 122 223 387 420 608 1360
2020-09-18 08:30 4.96 376 4960 (1986) 1 (1954) 376 50 83 109 122 223 387 420 608 1360
2020-09-18 07:30 4.96 376 4960 (1986) 1 (1954) 376 50 83 109 122 223 387 420 608 1360
2020-09-18 06:30 4.96 376 4960 (1986) 1 (1954) 376 50 83 109 122 223 387 420 608 1360
2020-09-18 05:30 4.96 376 4960 (1986) 1 (1954) 376 50 83 109 122 223 387 420 608 1360
2020-09-18 04:30 4.96 376 4960 (1986) 1 (1954) 376 50 83 109 122 223 387 420 608 1360
2020-09-18 03:30 4.96 376 4960 (1986) 1 (1954) 376 50 83 109 122 223 387 420 608 1360
2020-09-18 02:30 4.96 376 4960 (1986) 1 (1954) 376 50 83 109 122 223 387 420 608 1360
2020-09-18 01:30 4.96 376 4960 (1986) 1 (1954) 376 50 83 109 122 223 387 420 608 1360
2020-09-18 00:30 4.96 376 4960 (1986) 1 (1954) 376 50 83 109 122 223 387 420 608 1360
2020-09-17 23:30 4.96 376 3050 (2008) 1 (1954) 391 42 72 107 124 220 385 450 682 1960
2020-09-17 22:30 4.96 376 3050 (2008) 1 (1954) 391 42 72 107 124 220 385 450 682 1960
2020-09-17 21:30 4.96 376 3050 (2008) 1 (1954) 391 42 72 107 124 220 385 450 682 1960
2020-09-17 20:30 4.95 372 3050 (2008) 1 (1954) 391 42 72 107 124 220 385 450 682 1960
2020-09-17 19:30 4.95 372 3050 (2008) 1 (1954) 391 42 72 107 124 220 385 450 682 1960
2020-09-17 18:30 4.94 368 3050 (2008) 1 (1954) 391 42 72 107 124 220 385 450 682 1960
2020-09-17 17:30 4.94 368 3050 (2008) 1 (1954) 391 42 72 107 124 220 385 450 682 1960
2020-09-17 16:30 4.94 368 3050 (2008) 1 (1954) 391 42 72 107 124 220 385 450 682 1960
2020-09-17 15:30 4.94 368 3050 (2008) 1 (1954) 391 42 72 107 124 220 385 450 682 1960
2020-09-17 14:30 4.95 372 3050 (2008) 1 (1954) 391 42 72 107 124 220 385 450 682 1960
2020-09-17 13:30 4.95 372 3050 (2008) 1 (1954) 391 42 72 107 124 220 385 450 682 1960
2020-09-17 12:30 4.96 376 3050 (2008) 1 (1954) 391 42 72 107 124 220 385 450 682 1960
2020-09-17 11:30 4.96 376 3050 (2008) 1 (1954) 391 42 72 107 124 220 385 450 682 1960
2020-09-17 10:30 4.96 376 3050 (2008) 1 (1954) 391 42 72 107 124 220 385 450 682 1960
2020-09-17 09:30 4.97 380 3050 (2008) 1 (1954) 391 42 72 107 124 220 385 450 682 1960
2020-09-17 08:30 4.97 380 3050 (2008) 1 (1954) 391 42 72 107 124 220 385 450 682 1960
2020-09-17 07:30 4.97 380 3050 (2008) 1 (1954) 391 42 72 107 124 220 385 450 682 1960
2020-09-17 06:30 4.98 384 3050 (2008) 1 (1954) 391 42 72 107 124 220 385 450 682 1960
2020-09-17 05:30 4.97 380 3050 (2008) 1 (1954) 391 42 72 107 124 220 385 450 682 1960
2020-09-17 04:30 4.98 384 3050 (2008) 1 (1954) 391 42 72 107 124 220 385 450 682 1960
2020-09-17 03:30 4.97 380 3050 (2008) 1 (1954) 391 42 72 107 124 220 385 450 682 1960
2020-09-17 02:30 4.97 380 3050 (2008) 1 (1954) 391 42 72 107 124 220 385 450 682 1960
2020-09-17 01:30 4.97 380 3050 (2008) 1 (1954) 391 42 72 107 124 220 385 450 682 1960
2020-09-17 00:30 4.97 380 3050 (2008) 1 (1954) 391 42 72 107 124 220 385 450 682 1960
2020-09-16 23:30 4.97 380 6640 (1993) 1 (1954) 443 37 71 110 118 214 387 485 637 1120
2020-09-16 22:30 4.97 380 6640 (1993) 1 (1954) 443 37 71 110 118 214 387 485 637 1120
2020-09-16 21:30 4.97 380 6640 (1993) 1 (1954) 443 37 71 110 118 214 387 485 637 1120
2020-09-16 20:30 4.97 380 6640 (1993) 1 (1954) 443 37 71 110 118 214 387 485 637 1120
2020-09-16 19:30 4.96 376 6640 (1993) 1 (1954) 443 37 71 110 118 214 387 485 637 1120
2020-09-16 18:30 4.97 380 6640 (1993) 1 (1954) 443 37 71 110 118 214 387 485 637 1120
2020-09-16 17:30 4.96 376 6640 (1993) 1 (1954) 443 37 71 110 118 214 387 485 637 1120
2020-09-16 16:30 4.96 376 6640 (1993) 1 (1954) 443 37 71 110 118 214 387 485 637 1120
2020-09-16 15:30 4.96 376 6640 (1993) 1 (1954) 443 37 71 110 118 214 387 485 637 1120
2020-09-16 14:30 4.97 380 6640 (1993) 1 (1954) 443 37 71 110 118 214 387 485 637 1120
2020-09-16 13:30 4.97 380 6640 (1993) 1 (1954) 443 37 71 110 118 214 387 485 637 1120
2020-09-16 12:30 4.98 384 6640 (1993) 1 (1954) 443 37 71 110 118 214 387 485 637 1120
2020-09-16 11:30 4.98 384 6640 (1993) 1 (1954) 443 37 71 110 118 214 387 485 637 1120
2020-09-16 10:30 4.98 384 6640 (1993) 1 (1954) 443 37 71 110 118 214 387 485 637 1120
2020-09-16 09:30 4.99 388 6640 (1993) 1 (1954) 443 37 71 110 118 214 387 485 637 1120
2020-09-16 08:30 4.99 388 6640 (1993) 1 (1954) 443 37 71 110 118 214 387 485 637 1120
2020-09-16 07:30 4.99 388 6640 (1993) 1 (1954) 443 37 71 110 118 214 387 485 637 1120
2020-09-16 06:30 5.00 392 6640 (1993) 1 (1954) 443 37 71 110 118 214 387 485 637 1120
2020-09-16 05:30 4.99 388 6640 (1993) 1 (1954) 443 37 71 110 118 214 387 485 637 1120
2020-09-16 04:30 5.00 392 6640 (1993) 1 (1954) 443 37 71 110 118 214 387 485 637 1120
2020-09-16 03:30 5.00 392 6640 (1993) 1 (1954) 443 37 71 110 118 214 387 485 637 1120
2020-09-16 02:30 5.00 392 6640 (1993) 1 (1954) 443 37 71 110 118 214 387 485 637 1120
2020-09-16 01:30 5.00 392 6640 (1993) 1 (1954) 443 37 71 110 118 214 387 485 637 1120
2020-09-16 00:30 5.00 392 6640 (1993) 1 (1954) 443 37 71 110 118 214 387 485 637 1120

A total of 170 rows are displayed for years 1936 through 2018.